Time;durP1;ratioP1;P1;durP2;ratioP2;P2;SDS_P1;SDS_P2;PMS_P1;PMS_P2;Temp;Humidity;BMP_temperature;BMP_pressure;BME280_temperature;BME280_humidity;BME280_pressure;Samples;Min_cycle;Max_cycle;Signal;HPM_P1;HPM_P2
2022/01/14 00:01:49;;;;;;;7.38;6.63;;;1.10;99.90;;;;;;5078372;28;20224;-71
2022/01/14 00:04:16;;;;;;;8.25;7.30;;;1.10;99.90;;;;;;5088713;28;20583;-71
2022/01/14 00:06:43;;;;;;;15.98;6.15;;;1.10;99.90;;;;;;5072425;28;20216;-71
2022/01/14 00:09:12;;;;;;;6.63;6.03;;;1.10;99.90;;;;;;5085440;28;20303;-72
2022/01/14 00:11:45;;;;;;;8.05;6.30;;;1.10;99.90;;;;;;5080974;28;20275;-74
2022/01/14 00:14:23;;;;;;;10.07;6.68;;;1.10;99.90;;;;;;5084904;28;20288;-72
2022/01/14 00:16:50;;;;;;;7.30;6.57;;;1.10;99.90;;;;;;5072164;28;20200;-73
2022/01/14 00:19:18;;;;;;;10.15;6.68;;;1.10;99.90;;;;;;5072130;28;20201;-73
2022/01/14 00:21:45;;;;;;;9.07;6.57;;;1.00;99.90;;;;;;5079235;28;20285;-74
2022/01/14 00:24:23;;;;;;;9.80;5.18;;;1.00;99.90;;;;;;5090469;28;20253;-71
2022/01/14 00:32:28;;;;;;;10.85;6.45;;;0.90;99.90;;;;;;5090733;28;20231;-73
2022/01/14 00:34:54;;;;;;;7.18;5.88;;;1.00;99.90;;;;;;5087244;28;20197;-73
2022/01/14 00:37:21;;;;;;;7.75;6.95;;;1.00;99.90;;;;;;5082135;28;20267;-72
2022/01/14 00:39:48;;;;;;;7.43;5.53;;;1.00;99.90;;;;;;5092463;28;20516;-71
2022/01/14 00:42:16;;;;;;;9.70;4.85;;;1.00;99.90;;;;;;5076654;28;20221;-73
2022/01/14 00:44:43;;;;;;;6.85;6.20;;;0.90;99.90;;;;;;5075494;28;20223;-70
2022/01/14 00:47:10;;;;;;;11.07;6.65;;;0.90;99.90;;;;;;5089360;28;20204;-71
2022/01/14 00:49:36;;;;;;;13.77;8.35;;;0.80;99.90;;;;;;5090017;28;20293;-71
2022/01/14 00:52:04;;;;;;;7.82;5.63;;;0.80;99.90;;;;;;5084231;28;20232;-71
2022/01/14 00:54:30;;;;;;;7.50;6.43;;;0.80;99.90;;;;;;5079570;28;20270;-71
2022/01/14 00:57:15;;;;;;;6.88;6.13;;;0.80;99.90;;;;;;5084222;28;20240;-71
2022/01/14 00:59:43;;;;;;;9.70;5.40;;;0.70;99.90;;;;;;5073740;28;20385;-71
2022/01/14 01:02:10;;;;;;;7.43;5.93;;;0.70;99.90;;;;;;5086054;28;20225;-72
2022/01/14 01:04:39;;;;;;;6.95;6.05;;;0.70;99.90;;;;;;5070012;28;20278;-71
2022/01/14 01:07:07;;;;;;;5.55;4.18;;;0.70;99.90;;;;;;5079965;28;20242;-71
2022/01/14 01:09:35;;;;;;;5.57;5.07;;;0.70;99.90;;;;;;5080968;28;20722;-71
2022/01/14 01:12:10;;;;;;;6.47;5.80;;;0.70;99.90;;;;;;5080214;28;20301;-71
2022/01/14 01:14:42;;;;;;;9.63;7.80;;;0.70;99.90;;;;;;5077425;28;20200;-71
2022/01/14 01:17:11;;;;;;;9.07;7.28;;;0.70;99.90;;;;;;5077133;28;20205;-71
2022/01/14 01:19:38;;;;;;;7.35;6.35;;;0.60;99.90;;;;;;5074940;28;20213;-71
2022/01/14 01:22:05;;;;;;;9.68;7.43;;;0.60;99.90;;;;;;5085134;28;20289;-70
2022/01/14 01:24:32;;;;;;;5.97;4.97;;;0.60;99.90;;;;;;5070262;28;20197;-72
2022/01/14 01:27:03;;;;;;;9.07;7.03;;;0.60;99.90;;;;;;5077404;28;20251;-72
2022/01/14 01:29:45;;;;;;;9.10;7.25;;;0.50;99.90;;;;;;5083098;28;20218;-71
2022/01/14 01:32:13;;;;;;;6.93;6.25;;;0.50;99.90;;;;;;5073928;28;20839;-71
2022/01/14 01:34:40;;;;;;;7.13;5.38;;;0.50;99.90;;;;;;5072284;28;20859;-71
2022/01/14 01:37:07;;;;;;;7.45;5.85;;;0.50;99.90;;;;;;5069716;28;20209;-71
2022/01/14 01:39:35;;;;;;;7.22;6.35;;;0.50;99.90;;;;;;5077603;28;20220;-71
2022/01/14 01:42:05;;;;;;;7.68;6.28;;;0.50;99.90;;;;;;5077643;28;20331;-71
2022/01/14 01:44:32;;;;;;;7.68;6.88;;;0.50;99.90;;;;;;5079400;28;20223;-72
2022/01/14 01:46:59;;;;;;;6.57;4.80;;;0.50;99.90;;;;;;5102950;28;20306;-71
2022/01/14 01:49:31;;;;;;;9.80;7.78;;;0.50;99.90;;;;;;5074896;28;20212;-71
2022/01/14 01:51:59;;;;;;;9.38;5.45;;;0.50;99.90;;;;;;5082850;28;20605;-72
2022/01/14 01:54:27;;;;;;;8.20;7.30;;;0.50;99.90;;;;;;5084178;28;20649;-72
2022/01/14 01:56:54;;;;;;;7.47;6.30;;;0.50;99.90;;;;;;5084409;28;20258;-72
2022/01/14 01:59:23;;;;;;;5.25;4.75;;;0.40;99.90;;;;;;5072913;28;20200;-71
2022/01/14 02:01:51;;;;;;;8.07;6.15;;;0.40;99.90;;;;;;5080182;28;20273;-71
2022/01/14 02:04:18;;;;;;;10.10;5.68;;;0.30;99.90;;;;;;5093581;28;20216;-70
2022/01/14 02:06:47;;;;;;;8.68;5.28;;;0.30;99.90;;;;;;5098698;28;20200;-73
2022/01/14 02:09:13;;;;;;;9.50;7.75;;;0.30;99.90;;;;;;5089429;28;20471;-72
2022/01/14 02:11:40;;;;;;;11.23;8.93;;;0.40;99.90;;;;;;5094527;28;20299;-70
2022/01/14 02:14:15;;;;;;;6.15;5.55;;;0.40;99.90;;;;;;5072591;28;20213;-71
2022/01/14 02:17:27;;;;;;;12.98;6.32;;;0.40;99.90;;;;;;5079135;28;20267;-70
2022/01/14 02:22:46;;;;;;;8.40;7.55;;;0.30;99.90;;;;;;5074161;28;20642;-72
2022/01/14 02:25:15;;;;;;;9.82;7.63;;;0.30;99.90;;;;;;5072533;28;20219;-70
2022/01/14 02:27:42;;;;;;;5.53;5.13;;;0.30;99.90;;;;;;5094897;28;20585;-70
2022/01/14 02:30:10;;;;;;;6.32;5.72;;;0.30;99.90;;;;;;5077919;28;20902;-70
2022/01/14 02:32:39;;;;;;;5.50;5.00;;;0.30;99.90;;;;;;5072006;28;20217;-70
2022/01/14 02:35:08;;;;;;;4.97;4.55;;;0.30;99.90;;;;;;5077096;28;20636;-70
2022/01/14 02:37:35;;;;;;;5.43;4.60;;;0.30;99.90;;;;;;5094151;28;20196;-70
2022/01/14 02:40:01;;;;;;;9.75;6.63;;;0.20;99.90;;;;;;5074695;28;20263;-70
2022/01/14 02:42:28;;;;;;;8.77;5.47;;;0.20;99.90;;;;;;5069353;28;20225;-71
2022/01/14 02:45:00;;;;;;;11.27;5.20;;;0.20;99.90;;;;;;5084592;28;20216;-70
2022/01/14 02:47:27;;;;;;;8.68;6.03;;;0.20;99.90;;;;;;5093487;28;20220;-70
2022/01/14 02:49:54;;;;;;;6.95;4.70;;;0.30;99.90;;;;;;5095485;28;20224;-73
2022/01/14 02:52:28;;;;;;;7.53;4.65;;;0.20;99.90;;;;;;5094747;28;20229;-72
2022/01/14 02:55:14;;;;;;;9.07;5.50;;;0.20;99.90;;;;;;5098610;28;20519;-72
2022/01/14 02:57:43;;;;;;;9.43;5.50;;;0.20;99.90;;;;;;5086034;28;20261;-72
2022/01/14 03:00:10;;;;;;;8.25;5.00;;;0.20;99.90;;;;;;5076270;28;20251;-70
2022/01/14 03:02:42;;;;;;;5.32;4.80;;;0.20;99.90;;;;;;5078173;28;20220;-70
2022/01/14 03:05:09;;;;;;;6.53;5.43;;;0.20;99.90;;;;;;5085946;28;20205;-71
2022/01/14 03:07:38;;;;;;;8.95;5.50;;;0.20;99.90;;;;;;5080923;28;20210;-71
2022/01/14 03:10:06;;;;;;;6.82;6.05;;;0.10;99.90;;;;;;5079595;28;20724;-72
2022/01/14 03:12:34;;;;;;;6.53;5.85;;;0.10;99.90;;;;;;5091128;28;20236;-71
2022/01/14 03:15:00;;;;;;;5.28;4.68;;;0.10;99.90;;;;;;5077619;28;20209;-71
2022/01/14 03:17:28;;;;;;;6.70;5.00;;;0.10;99.90;;;;;;5096482;28;20200;-72
2022/01/14 03:19:57;;;;;;;6.57;4.78;;;0.00;99.90;;;;;;5096725;28;20276;-72
2022/01/14 03:22:28;;;;;;;6.50;5.60;;;0.00;99.90;;;;;;5074014;28;20221;-71
2022/01/14 03:27:41;;;;;;;12.20;6.75;;;0.00;99.90;;;;;;5082965;28;20227;-72
2022/01/14 03:30:08;;;;;;;7.72;6.50;;;0.10;99.90;;;;;;5075260;28;20253;-71
2022/01/14 03:32:35;;;;;;;9.85;5.05;;;0.10;99.90;;;;;;5081011;28;20312;-72
2022/01/14 03:35:02;;;;;;;5.93;5.47;;;0.10;99.90;;;;;;5091203;28;20193;-71
2022/01/14 03:37:28;;;;;;;7.75;5.95;;;0.10;99.90;;;;;;5067046;28;20270;-72
2022/01/14 03:39:56;;;;;;;8.10;5.50;;;0.10;99.90;;;;;;5072529;28;20200;-74
2022/01/14 03:42:23;;;;;;;9.05;5.50;;;0.10;99.90;;;;;;5078790;28;20306;-71
2022/01/14 03:44:50;;;;;;;6.25;4.82;;;0.00;99.90;;;;;;5085532;28;20254;-70
2022/01/14 03:47:16;;;;;;;5.28;4.85;;;0.10;99.90;;;;;;5092850;28;20209;-71
2022/01/14 03:49:43;;;;;;;5.78;5.18;;;0.10;99.90;;;;;;5077039;28;20758;-70
2022/01/14 03:52:10;;;;;;;7.68;6.90;;;0.10;99.90;;;;;;5082239;28;20237;-70
2022/01/14 03:54:36;;;;;;;9.63;4.95;;;0.20;99.90;;;;;;5081899;28;20751;-70
2022/01/14 03:57:05;;;;;;;6.32;5.60;;;0.20;99.90;;;;;;5071140;28;20827;-69
2022/01/14 03:59:32;;;;;;;7.03;5.32;;;0.20;99.90;;;;;;5082170;28;20669;-70
2022/01/14 04:01:58;;;;;;;11.57;5.60;;;0.20;99.90;;;;;;5085146;28;20224;-70
2022/01/14 04:04:25;;;;;;;8.05;6.00;;;0.20;99.90;;;;;;5084669;28;20193;-71
2022/01/14 04:06:51;;;;;;;4.90;4.18;;;0.20;99.90;;;;;;5075720;28;20205;-71
2022/01/14 04:09:19;;;;;;;6.65;4.38;;;0.20;99.90;;;;;;5088220;28;20240;-71
2022/01/14 04:11:45;;;;;;;7.07;5.70;;;0.20;99.90;;;;;;5080388;28;20229;-70
2022/01/14 04:16:58;;;;;;;9.23;5.95;;;0.20;99.90;;;;;;5077488;28;20207;-71
2022/01/14 04:19:26;;;;;;;5.95;5.32;;;0.20;99.90;;;;;;5076359;28;20213;-70
2022/01/14 04:21:53;;;;;;;6.30;4.53;;;0.20;99.90;;;;;;5083683;28;20717;-70
2022/01/14 04:24:20;;;;;;;5.18;3.35;;;0.20;99.90;;;;;;5084714;28;20204;-70
2022/01/14 04:26:46;;;;;;;9.75;4.05;;;0.20;99.90;;;;;;5083646;28;20278;-71
2022/01/14 04:29:14;;;;;;;4.90;3.03;;;0.20;99.90;;;;;;5077928;28;20286;-71
2022/01/14 04:31:41;;;;;;;6.35;5.20;;;0.20;99.90;;;;;;5079615;28;20234;-70
2022/01/14 04:34:08;;;;;;;5.18;4.47;;;0.30;99.90;;;;;;5081424;28;20235;-70
2022/01/14 04:36:35;;;;;;;7.40;5.43;;;0.30;99.90;;;;;;5077928;28;20270;-71
2022/01/14 04:39:01;;;;;;;6.38;5.72;;;0.20;99.90;;;;;;5073499;28;20681;-70
2022/01/14 04:41:28;;;;;;;7.05;4.28;;;0.20;99.90;;;;;;5080957;28;20220;-70
2022/01/14 04:43:54;;;;;;;4.32;4.00;;;0.20;99.90;;;;;;5074666;28;20201;-72
2022/01/14 04:46:48;;;;;;;4.80;4.00;;;0.20;99.90;;;;;;5083299;28;20270;-70
2022/01/14 04:49:15;;;;;;;9.75;5.38;;;0.20;99.90;;;;;;5075710;28;20270;-70
2022/01/14 04:51:41;;;;;;;6.22;4.50;;;0.10;99.90;;;;;;5075854;28;20237;-71
2022/01/14 04:54:09;;;;;;;6.20;5.40;;;0.10;99.90;;;;;;5103591;22;20274;-67
2022/01/14 04:56:36;;;;;;;5.68;5.18;;;0.00;99.90;;;;;;5081174;28;20205;-67
2022/01/14 04:59:03;;;;;;;6.68;4.95;;;-0.10;99.90;;;;;;5084408;28;20258;-65
2022/01/14 05:01:32;;;;;;;8.95;5.47;;;-0.10;99.90;;;;;;5082511;28;20197;-67
2022/01/14 05:03:59;;;;;;;6.57;4.40;;;-0.10;99.90;;;;;;5098506;28;20200;-66
2022/01/14 05:06:27;;;;;;;8.27;4.13;;;-0.10;99.90;;;;;;5090128;28;20236;-66
2022/01/14 05:08:54;;;;;;;5.05;4.35;;;-0.10;99.90;;;;;;5090447;28;20571;-67
2022/01/14 05:11:24;;;;;;;5.95;4.65;;;-0.10;99.90;;;;;;5090833;28;20193;-67
2022/01/14 05:13:51;;;;;;;11.93;5.80;;;-0.20;99.90;;;;;;5082429;28;20200;-67
2022/01/14 05:16:18;;;;;;;4.20;3.75;;;-0.20;99.90;;;;;;5087991;28;20217;-66
2022/01/14 05:18:46;;;;;;;4.13;3.60;;;-0.20;99.90;;;;;;5089955;28;20404;-67
2022/01/14 05:21:14;;;;;;;9.68;5.82;;;-0.30;99.90;;;;;;5090367;28;20197;-67
2022/01/14 05:23:42;;;;;;;4.70;3.65;;;-0.20;99.90;;;;;;5090817;28;20212;-67
2022/01/14 05:26:09;;;;;;;4.97;4.10;;;-0.20;99.90;;;;;;5090101;28;20254;-67
2022/01/14 05:28:35;;;;;;;4.20;3.90;;;-0.20;99.90;;;;;;5086845;28;20200;-70
2022/01/14 05:31:02;;;;;;;7.90;5.65;;;-0.30;99.90;;;;;;5088626;28;20776;-66
2022/01/14 05:33:29;;;;;;;7.15;3.15;;;-0.30;99.90;;;;;;5089183;28;20197;-66
2022/01/14 05:35:57;;;;;;;4.88;4.47;;;-0.30;99.90;;;;;;5091038;28;20455;-67
2022/01/14 05:38:24;;;;;;;6.03;4.43;;;-0.30;99.90;;;;;;5089871;28;20196;-65
2022/01/14 05:40:50;;;;;;;8.55;6.38;;;-0.30;99.90;;;;;;5090626;28;20197;-65
2022/01/14 05:43:17;;;;;;;9.13;5.25;;;-0.40;99.90;;;;;;5087249;28;20209;-65
2022/01/14 05:45:44;;;;;;;6.93;5.88;;;-0.40;99.90;;;;;;5082633;28;20273;-65
2022/01/14 05:48:10;;;;;;;4.65;4.20;;;-0.40;99.90;;;;;;5091121;28;20209;-65
2022/01/14 05:50:37;;;;;;;4.82;3.97;;;-0.40;99.90;;;;;;5089999;28;20217;-65
2022/01/14 05:53:06;;;;;;;6.78;3.78;;;-0.40;99.90;;;;;;5089957;28;20573;-65
2022/01/14 05:55:33;;;;;;;4.78;4.10;;;-0.40;99.90;;;;;;5085781;28;20279;-66
2022/01/14 05:58:00;;;;;;;3.75;3.22;;;-0.40;99.90;;;;;;5087781;28;20209;-64
2022/01/14 06:00:27;;;;;;;6.05;3.95;;;-0.40;99.90;;;;;;5085738;28;20201;-64
2022/01/14 06:02:53;;;;;;;4.90;4.50;;;-0.50;99.90;;;;;;5087873;28;20208;-68
2022/01/14 06:05:21;;;;;;;3.85;3.53;;;-0.50;99.90;;;;;;5088927;28;20220;-67
2022/01/14 06:07:48;;;;;;;7.10;4.78;;;-0.50;99.90;;;;;;5088662;28;20204;-65
2022/01/14 06:10:16;;;;;;;11.68;5.50;;;-0.60;99.90;;;;;;5086984;28;20278;-65
2022/01/14 06:12:43;;;;;;;5.05;3.97;;;-0.50;99.90;;;;;;5089368;28;20201;-66
2022/01/14 06:15:10;;;;;;;5.53;5.03;;;-0.60;99.90;;;;;;5088996;28;20221;-66
2022/01/14 06:17:37;;;;;;;4.13;3.55;;;-0.60;99.90;;;;;;5090258;28;20204;-66
2022/01/14 06:20:05;;;;;;;5.55;3.03;;;-0.60;99.90;;;;;;5089569;28;20261;-66
2022/01/14 06:22:32;;;;;;;3.50;3.30;;;-0.60;99.90;;;;;;5088079;28;20624;-66
2022/01/14 06:25:00;;;;;;;6.15;5.28;;;-0.60;99.90;;;;;;5089550;28;20254;-65
2022/01/14 06:27:28;;;;;;;5.90;5.10;;;-0.60;99.90;;;;;;5089809;28;20239;-65
2022/01/14 06:29:54;;;;;;;5.30;4.85;;;-0.60;99.90;;;;;;5088818;28;20641;-65
2022/01/14 06:32:21;;;;;;;3.95;3.60;;;-0.60;99.90;;;;;;5090425;28;20217;-66
2022/01/14 06:34:48;;;;;;;4.65;4.18;;;-0.60;99.90;;;;;;5088978;28;20220;-65
2022/01/14 06:37:14;;;;;;;6.53;4.88;;;-0.60;99.90;;;;;;5089990;28;20250;-66
2022/01/14 06:39:41;;;;;;;8.43;4.82;;;-0.60;99.90;;;;;;5089277;28;20201;-66
2022/01/14 06:42:08;;;;;;;4.55;3.50;;;-0.70;99.90;;;;;;5089370;28;20201;-66
2022/01/14 06:44:36;;;;;;;4.90;3.50;;;-0.70;99.90;;;;;;5086947;28;20220;-66
2022/01/14 06:47:03;;;;;;;6.95;4.45;;;-0.70;99.90;;;;;;5089691;28;20559;-66
2022/01/14 06:49:29;;;;;;;5.68;4.28;;;-0.70;99.90;;;;;;5089242;28;20204;-66
2022/01/14 06:51:56;;;;;;;6.25;5.75;;;-0.80;99.90;;;;;;5088511;28;20246;-67
2022/01/14 06:54:23;;;;;;;5.00;4.60;;;-0.80;99.90;;;;;;5088631;28;20236;-67
2022/01/14 06:56:49;;;;;;;5.30;4.15;;;-0.70;99.90;;;;;;5089396;28;20193;-66
2022/01/14 06:59:16;;;;;;;7.78;4.82;;;-0.70;99.90;;;;;;5089437;28;20209;-65
2022/01/14 07:01:44;;;;;;;5.32;4.82;;;-0.70;99.90;;;;;;5084267;28;20207;-65
2022/01/14 07:04:11;;;;;;;7.13;4.28;;;-0.60;99.90;;;;;;5089029;28;20200;-65
2022/01/14 07:06:38;;;;;;;8.07;5.40;;;-0.60;99.90;;;;;;5088992;28;20332;-67
2022/01/14 07:09:04;;;;;;;11.27;5.53;;;-0.60;99.90;;;;;;5088696;28;20773;-66
2022/01/14 07:11:36;;;;;;;8.25;4.35;;;-0.60;99.90;;;;;;5079471;28;20962;-66
2022/01/14 07:14:03;;;;;;;6.30;4.20;;;-0.60;99.90;;;;;;5087876;28;20265;-65
2022/01/14 07:16:29;;;;;;;4.25;3.85;;;-0.60;99.90;;;;;;5087073;28;20254;-66
2022/01/14 07:18:57;;;;;;;4.68;4.38;;;-0.60;99.90;;;;;;5088043;28;20250;-66
2022/01/14 07:21:24;;;;;;;4.93;3.60;;;-0.50;99.90;;;;;;5080828;28;20664;-65
2022/01/14 07:23:51;;;;;;;5.05;3.22;;;-0.50;99.90;;;;;;5088498;28;20197;-66
2022/01/14 07:26:17;;;;;;;8.10;5.45;;;-0.50;99.90;;;;;;5088897;28;20224;-67
2022/01/14 07:28:44;;;;;;;5.10;4.70;;;-0.50;99.90;;;;;;5088771;28;20261;-66
2022/01/14 07:31:11;;;;;;;5.03;4.50;;;-0.50;99.90;;;;;;5089647;28;20224;-67
2022/01/14 07:33:37;;;;;;;3.58;3.25;;;-0.60;99.90;;;;;;5089242;28;20641;-67
2022/01/14 07:36:06;;;;;;;5.20;4.07;;;-0.60;99.90;;;;;;5087896;28;20216;-67
2022/01/14 07:38:33;;;;;;;6.68;4.20;;;-0.50;99.90;;;;;;5087637;28;20731;-68
2022/01/14 07:40:59;;;;;;;4.18;3.78;;;-0.50;99.90;;;;;;5089255;28;20235;-65
2022/01/14 07:43:26;;;;;;;9.38;4.40;;;-0.40;99.90;;;;;;5089222;28;20253;-67
2022/01/14 07:45:52;;;;;;;4.65;3.35;;;-0.30;99.90;;;;;;5088654;28;20220;-66
2022/01/14 07:48:19;;;;;;;6.93;4.63;;;-0.30;99.90;;;;;;5087103;28;20686;-67
2022/01/14 07:50:46;;;;;;;5.05;4.03;;;-0.40;99.90;;;;;;5088347;28;20285;-66
2022/01/14 07:53:14;;;;;;;4.25;3.78;;;-0.40;99.90;;;;;;5088476;28;20250;-67
2022/01/14 07:55:41;;;;;;;6.35;3.97;;;-0.40;99.90;;;;;;5087292;28;20221;-67
2022/01/14 07:58:08;;;;;;;4.75;4.15;;;-0.40;99.90;;;;;;5088044;28;20262;-66
2022/01/14 08:00:36;;;;;;;8.02;5.10;;;-0.40;99.90;;;;;;5086103;28;20259;-66
2022/01/14 08:03:03;;;;;;;8.52;4.45;;;-0.40;99.90;;;;;;5086910;28;20567;-66
2022/01/14 08:05:29;;;;;;;4.97;4.57;;;-0.40;99.90;;;;;;5085727;28;20228;-67
2022/01/14 08:07:58;;;;;;;8.70;4.85;;;-0.40;99.90;;;;;;5088850;28;20201;-66
2022/01/14 08:10:26;;;;;;;5.63;5.03;;;-0.30;99.90;;;;;;5088333;28;20276;-67
2022/01/14 08:12:53;;;;;;;4.90;4.25;;;-0.30;99.90;;;;;;5086791;28;20731;-65
2022/01/14 08:15:19;;;;;;;5.55;5.10;;;-0.30;99.90;;;;;;5087551;28;20297;-66
2022/01/14 08:17:46;;;;;;;4.43;3.35;;;-0.20;99.90;;;;;;5087493;28;20197;-68
2022/01/14 08:20:13;;;;;;;7.03;4.47;;;-0.10;99.90;;;;;;5088355;28;20258;-67
2022/01/14 08:22:40;;;;;;;5.00;3.72;;;0.00;99.90;;;;;;5085661;28;20743;-66
2022/01/14 08:25:07;;;;;;;4.78;4.28;;;0.00;99.90;;;;;;5084380;28;20282;-66
2022/01/14 08:27:35;;;;;;;4.05;3.55;;;0.10;99.90;;;;;;5088683;28;20196;-66
2022/01/14 08:30:01;;;;;;;14.45;5.68;;;0.20;99.90;;;;;;5087586;28;20357;-66
2022/01/14 08:32:28;;;;;;;9.20;5.25;;;0.40;99.90;;;;;;5087575;28;20205;-66
2022/01/14 08:34:55;;;;;;;4.28;3.88;;;0.50;99.90;;;;;;5088477;28;20216;-66
2022/01/14 08:37:22;;;;;;;7.20;4.75;;;0.60;99.90;;;;;;5088604;28;20204;-66
2022/01/14 08:39:49;;;;;;;4.22;3.83;;;0.70;99.90;;;;;;5087905;28;20226;-66
2022/01/14 08:42:16;;;;;;;6.30;4.55;;;0.80;99.90;;;;;;5084563;28;20277;-66
2022/01/14 08:44:45;;;;;;;7.32;5.68;;;0.90;99.90;;;;;;5088726;28;20227;-66
2022/01/14 08:47:12;;;;;;;3.88;3.58;;;1.00;99.90;;;;;;5088195;28;20234;-65
2022/01/14 08:49:40;;;;;;;4.82;3.72;;;1.20;99.90;;;;;;5089694;28;20197;-66
2022/01/14 08:52:08;;;;;;;4.90;4.45;;;1.40;99.90;;;;;;5091222;28;20684;-64
2022/01/14 08:54:35;;;;;;;5.47;4.97;;;1.50;99.90;;;;;;5092541;28;20746;-67
2022/01/14 08:57:03;;;;;;;5.32;3.97;;;1.70;99.90;;;;;;5092057;28;20205;-65
2022/01/14 08:59:30;;;;;;;5.75;4.10;;;1.70;99.90;;;;;;5091191;28;20211;-66
2022/01/14 09:01:59;;;;;;;8.43;5.15;;;1.80;99.90;;;;;;5089388;28;20197;-67
2022/01/14 09:04:26;;;;;;;6.15;5.65;;;1.80;99.90;;;;;;5091970;28;20702;-68
2022/01/14 09:06:52;;;;;;;5.13;4.40;;;1.90;99.90;;;;;;5091011;28;20234;-65
2022/01/14 09:09:19;;;;;;;7.28;5.22;;;2.10;99.90;;;;;;5090338;28;20771;-65
2022/01/14 09:11:46;;;;;;;6.15;4.80;;;2.20;99.90;;;;;;5091526;28;20273;-65
2022/01/14 09:14:13;;;;;;;8.85;6.13;;;2.40;99.90;;;;;;5090484;28;20224;-65
2022/01/14 09:16:40;;;;;;;5.70;5.05;;;2.50;99.90;;;;;;5091201;28;20215;-65
2022/01/14 09:19:08;;;;;;;6.45;5.78;;;2.70;99.90;;;;;;5090603;28;20636;-67
2022/01/14 09:21:34;;;;;;;8.05;6.15;;;2.90;99.90;;;;;;5091249;28;20197;-66
2022/01/14 09:24:04;;;;;;;8.27;6.55;;;3.10;99.90;;;;;;5089749;28;20258;-66
2022/01/14 09:26:31;;;;;;;7.30;5.82;;;3.30;99.90;;;;;;5091701;28;20570;-66
2022/01/14 09:28:58;;;;;;;7.53;6.93;;;3.50;99.90;;;;;;5090887;28;20208;-65
2022/01/14 09:31:25;;;;;;;13.25;5.78;;;3.60;99.90;;;;;;5091360;28;20224;-64
2022/01/14 09:33:52;;;;;;;6.30;5.50;;;3.80;99.90;;;;;;5090585;28;20201;-65
2022/01/14 09:36:20;;;;;;;8.40;6.85;;;4.00;99.90;;;;;;5089729;28;20293;-65
2022/01/14 09:38:46;;;;;;;7.10;5.82;;;4.10;99.90;;;;;;5090283;28;20205;-65
2022/01/14 09:41:15;;;;;;;6.40;5.20;;;4.20;99.90;;;;;;5091052;28;20207;-65
2022/01/14 09:43:42;;;;;;;7.32;6.65;;;4.30;99.90;;;;;;5090823;28;20208;-65
2022/01/14 09:46:10;;;;;;;7.47;6.78;;;4.30;99.90;;;;;;5092052;28;20660;-65
2022/01/14 09:48:38;;;;;;;5.90;4.50;;;4.40;99.90;;;;;;5091336;28;20706;-67
2022/01/14 09:51:06;;;;;;;6.60;5.93;;;4.60;99.90;;;;;;5090617;28;20220;-65
2022/01/14 09:53:35;;;;;;;6.07;4.63;;;4.70;99.90;;;;;;5091084;28;20726;-65
2022/01/14 09:56:02;;;;;;;5.93;4.13;;;4.80;99.90;;;;;;5090665;28;20232;-67
2022/01/14 09:58:35;;;;;;;11.88;5.05;;;5.00;99.90;;;;;;5090883;28;20193;-66
2022/01/14 10:01:11;;;;;;;8.35;5.45;;;5.10;99.90;;;;;;5089100;28;20662;-67
2022/01/14 10:03:55;;;;;;;8.02;4.93;;;5.20;99.90;;;;;;5090792;28;20758;-66
2022/01/14 10:06:39;;;;;;;6.30;5.22;;;5.30;99.90;;;;;;5091005;28;20228;-65
2022/01/14 10:09:10;;;;;;;6.25;5.65;;;5.50;99.90;;;;;;5090089;28;20217;-65
2022/01/14 10:11:39;;;;;;;5.43;4.88;;;5.50;99.90;;;;;;5090072;28;20227;-67
2022/01/14 10:14:08;;;;;;;6.90;4.50;;;5.60;99.90;;;;;;5086932;28;20622;-65
2022/01/14 10:16:35;;;;;;;5.40;4.90;;;5.70;99.90;;;;;;5091468;28;20258;-66
2022/01/14 10:19:02;;;;;;;5.15;4.70;;;5.80;99.90;;;;;;5091613;28;20588;-66
2022/01/14 10:21:33;;;;;;;6.15;5.28;;;5.90;99.90;;;;;;5091825;28;20262;-64
2022/01/14 10:24:00;;;;;;;5.55;5.15;;;6.10;99.90;;;;;;5088327;28;20811;-66
2022/01/14 10:26:45;;;;;;;8.43;6.32;;;6.20;99.90;;;;;;5091414;28;20193;-66
2022/01/14 10:29:12;;;;;;;6.20;5.60;;;6.30;99.90;;;;;;5090998;28;20208;-67
2022/01/14 10:31:39;;;;;;;6.57;4.47;;;6.40;99.90;;;;;;5089660;28;20216;-66
2022/01/14 10:34:13;;;;;;;5.40;4.90;;;6.40;99.90;;;;;;5089656;28;20274;-66
2022/01/14 10:36:43;;;;;;;9.35;5.30;;;6.60;99.90;;;;;;5088855;28;20200;-66
2022/01/14 10:39:22;;;;;;;6.55;6.00;;;6.60;99.90;;;;;;5087836;28;20201;-65
2022/01/14 10:41:50;;;;;;;6.40;4.80;;;6.80;99.90;;;;;;5089054;28;20266;-66
2022/01/14 10:44:25;;;;;;;7.88;5.07;;;6.80;99.90;;;;;;5089985;28;20345;-65
2022/01/14 10:47:11;;;;;;;5.93;4.20;;;6.90;99.90;;;;;;5088324;28;20621;-65
2022/01/14 10:49:38;;;;;;;6.68;6.10;;;7.00;99.90;;;;;;5089671;28;20204;-65
2022/01/14 10:52:15;;;;;;;5.57;4.57;;;7.10;99.90;;;;;;5089639;28;20219;-66
2022/01/14 10:54:43;;;;;;;7.82;6.65;;;7.20;99.90;;;;;;5089411;28;20477;-65
2022/01/14 10:57:16;;;;;;;6.00;5.40;;;7.30;99.90;;;;;;5090544;28;20208;-66
2022/01/14 10:59:43;;;;;;;7.60;5.82;;;7.40;99.90;;;;;;5105098;22;20510;-68
2022/01/14 11:02:32;;;;;;;9.00;7.30;;;7.50;99.90;;;;;;5074079;28;20266;-68
2022/01/14 11:05:04;;;;;;;8.07;6.50;;;7.60;99.90;;;;;;5070120;28;20450;-68
2022/01/14 11:07:32;;;;;;;9.40;5.77;;;7.80;99.90;;;;;;5078584;28;20269;-68
2022/01/14 11:09:58;;;;;;;8.67;7.77;;;8.10;99.90;;;;;;5077231;28;20483;-68
2022/01/14 11:12:29;;;;;;;10.17;7.40;;;8.20;99.90;;;;;;5079657;28;21238;-68
2022/01/14 11:14:56;;;;;;;13.63;8.93;;;8.20;99.90;;;;;;5082460;28;20469;-68
2022/01/14 11:17:23;;;;;;;8.13;7.30;;;8.20;99.90;;;;;;5077337;28;20512;-68
2022/01/14 11:19:49;;;;;;;9.37;7.93;;;8.20;99.90;;;;;;5072709;28;20486;-68
2022/01/14 11:25:00;;;;;;;9.67;8.10;;;8.40;99.90;;;;;;5075102;28;20533;-68
2022/01/14 11:27:30;;;;;;;13.13;10.23;;;8.50;99.90;;;;;;5083939;28;20928;-69
2022/01/14 11:30:00;;;;;;;11.30;9.10;;;8.40;99.90;;;;;;5080430;28;20571;-68
2022/01/14 11:32:27;;;;;;;13.03;7.83;;;8.30;99.90;;;;;;5081997;28;20593;-69
2022/01/14 11:34:54;;;;;;;16.50;8.83;;;8.10;99.90;;;;;;5081072;28;20454;-69
2022/01/14 11:37:36;;;;;;;8.93;7.20;;;8.00;99.90;;;;;;5072011;28;20633;-67
2022/01/14 11:40:06;;;;;;;9.43;7.53;;;7.70;99.90;;;;;;5076078;28;20464;-68
2022/01/14 11:42:46;;;;;;;13.37;9.80;;;7.60;99.90;;;;;;5082436;28;20438;-69
2022/01/14 11:45:15;;;;;;;12.70;9.03;;;7.50;99.90;;;;;;5079351;28;20458;-68
2022/01/14 11:47:49;;;;;;;11.10;9.27;;;7.40;99.90;;;;;;5073578;28;20452;-68
2022/01/14 11:50:46;;;;;;;12.50;10.87;;;7.20;99.90;;;;;;5081408;28;20469;-68
2022/01/14 11:53:44;;;;;;;16.10;10.83;;;7.00;99.90;;;;;;5082538;28;20527;-68
2022/01/14 11:56:45;;;;;;;15.70;11.20;;;6.90;99.90;;;;;;4982843;28;20482;-68
2022/01/14 11:59:47;;;;;;;18.75;11.35;;;6.70;99.90;;;;;;5074346;28;20944;-68
2022/01/14 12:02:34;;;;;;;18.57;9.97;;;6.50;99.90;;;;;;5076834;28;20250;-69
2022/01/14 12:05:20;;;;;;;13.10;9.90;;;6.50;99.90;;;;;;5081257;28;20462;-67
2022/01/14 12:08:22;;;;;;;19.00;10.88;;;6.40;99.90;;;;;;5082318;28;20250;-67
2022/01/14 12:10:55;;;;;;;11.98;9.60;;;6.30;99.90;;;;;;5080965;28;20642;-69
2022/01/14 12:13:48;;;;;;;14.27;10.23;;;6.10;99.90;;;;;;5085682;28;20235;-68
2022/01/14 12:16:49;;;;;;;14.80;10.05;;;6.00;99.90;;;;;;5083922;28;20299;-68
2022/01/14 12:19:20;;;;;;;16.80;10.10;;;5.80;99.90;;;;;;5076442;28;20228;-68
2022/01/14 12:22:07;;;;;;;13.07;9.52;;;5.70;99.90;;;;;;5081044;28;20200;-68
2022/01/14 12:24:50;;;;;;;14.90;9.85;;;5.70;99.90;;;;;;5075424;28;20196;-67
2022/01/14 12:27:22;;;;;;;14.80;9.07;;;5.80;99.90;;;;;;5083630;28;20367;-68
2022/01/14 12:29:50;;;;;;;14.10;9.20;;;5.80;99.90;;;;;;5085003;28;21067;-69
2022/01/14 12:32:20;;;;;;;10.57;7.55;;;5.90;99.90;;;;;;5085560;28;20232;-68
2022/01/14 12:35:01;;;;;;;16.30;11.13;;;5.90;99.90;;;;;;5086355;28;20294;-67
2022/01/14 12:37:31;;;;;;;9.77;8.57;;;5.90;99.90;;;;;;5084189;28;20655;-68
2022/01/14 12:40:03;;;;;;;16.08;11.18;;;6.00;99.90;;;;;;5087266;28;20220;-68
2022/01/14 12:42:30;;;;;;;13.18;8.73;;;6.00;99.90;;;;;;5077041;28;20193;-67
2022/01/14 12:44:58;;;;;;;15.85;9.43;;;6.00;99.90;;;;;;5078988;28;20223;-68
2022/01/14 12:47:31;;;;;;;20.33;12.98;;;6.00;99.90;;;;;;5078738;28;20205;-67
2022/01/14 12:50:02;;;;;;;17.75;12.60;;;6.00;99.90;;;;;;5087762;28;20240;-67
2022/01/14 12:52:37;;;;;;;16.95;11.15;;;6.00;99.90;;;;;;5081398;28;20604;-67
2022/01/14 12:55:06;;;;;;;16.60;12.00;;;6.00;99.90;;;;;;5074576;28;20196;-67
2022/01/14 12:57:32;;;;;;;16.50;12.07;;;6.00;99.90;;;;;;5078844;28;20201;-66
2022/01/14 12:59:59;;;;;;;22.08;11.50;;;6.00;99.90;;;;;;5080052;28;20271;-67
2022/01/14 13:02:29;;;;;;;22.80;10.82;;;5.90;99.90;;;;;;5087073;28;20258;-67
2022/01/14 13:05:00;;;;;;;21.05;11.30;;;5.90;99.90;;;;;;5087564;28;20232;-66
2022/01/14 13:07:27;;;;;;;21.52;12.07;;;5.80;99.90;;;;;;5086165;28;20216;-66
2022/01/14 13:09:54;;;;;;;24.35;10.82;;;5.80;99.90;;;;;;5084344;28;20232;-66
2022/01/14 13:12:24;;;;;;;26.38;12.10;;;5.80;99.90;;;;;;5082544;28;20297;-70
2022/01/14 13:14:55;;;;;;;18.63;12.07;;;5.70;99.90;;;;;;5080857;28;20297;-67
2022/01/14 13:17:25;;;;;;;17.77;12.20;;;5.70;99.90;;;;;;5077141;28;20208;-67
2022/01/14 13:19:58;;;;;;;18.15;12.93;;;5.60;99.90;;;;;;5086746;28;20297;-68